createdAt,value
2023-05-08T00:02:15.461Z,102027.94
2023-05-08T00:04:43.376Z,102025.22
2023-05-08T00:07:11.229Z,102030.97
2023-05-08T00:09:40.653Z,102035.00
2023-05-08T00:12:08.876Z,102040.63
2023-05-08T00:14:36.765Z,102032.56
2023-05-08T00:17:04.669Z,102042.50
2023-05-08T00:19:32.728Z,102028.97
2023-05-08T00:22:00.452Z,102037.31
2023-05-08T00:24:28.208Z,102035.59
2023-05-08T00:26:57.368Z,102037.59
2023-05-08T00:29:25.213Z,102043.94
2023-05-08T00:31:53.097Z,102035.75
2023-05-08T00:34:20.874Z,102038.59
2023-05-08T00:36:48.823Z,102041.34
2023-05-08T00:39:16.677Z,102042.38
2023-05-08T00:41:44.451Z,102042.66
2023-05-08T00:44:13.588Z,102042.81
2023-05-08T00:46:45.733Z,102034.28
2023-05-08T00:49:14.625Z,102027.53
2023-05-08T00:51:43.620Z,102032.84
2023-05-08T00:54:12.168Z,102025.94
2023-05-08T00:56:40.486Z,102034.84
2023-05-08T00:59:12.730Z,102036.31
2023-05-08T01:01:45.289Z,102030.53
2023-05-08T01:04:13.320Z,102032.84
2023-05-08T01:06:43.991Z,102024.75
2023-05-08T01:09:12.252Z,102036.53
2023-05-08T01:11:48.287Z,102038.25
2023-05-08T01:14:21.310Z,102043.44
2023-05-08T01:16:59.605Z,102040.84
2023-05-08T01:19:55.991Z,102036.81
2023-05-08T01:22:45.133Z,102042.38
2023-05-08T01:25:36.158Z,102039.63
2023-05-08T01:28:22.975Z,102018.88
2023-05-08T01:31:18.543Z,102029.72
2023-05-08T01:33:55.919Z,102019.19
2023-05-08T01:36:30.266Z,102002.75
2023-05-08T01:39:18.365Z,102027.09
2023-05-08T01:41:55.218Z,102033.28
2023-05-08T01:44:30.075Z,102037.03
2023-05-08T01:46:59.559Z,102032.56
2023-05-08T01:49:35.386Z,102024.66
2023-05-08T01:52:08.623Z,102031.00
2023-05-08T01:54:44.053Z,102028.56
2023-05-08T01:57:13.496Z,102034.91
2023-05-08T01:59:44.034Z,102040.09
2023-05-08T02:02:13.236Z,102037.81
2023-05-08T02:04:44.588Z,102051.34
2023-05-08T02:07:12.830Z,102056.53
2023-05-08T02:09:45.883Z,102050.03
2023-05-08T02:12:15.434Z,102050.91
2023-05-08T02:14:44.805Z,102051.50
2023-05-08T02:17:15.483Z,102049.47
2023-05-08T02:19:45.840Z,102056.56
2023-05-08T02:22:16.417Z,102054.94
2023-05-08T02:24:46.316Z,102052.19
2023-05-08T02:27:16.957Z,102058.56
2023-05-08T02:29:44.758Z,102066.63
2023-05-08T02:32:13.209Z,102063.03
2023-05-08T02:34:51.118Z,102056.09
2023-05-08T02:37:29.866Z,102061.72
2023-05-08T02:39:59.650Z,102061.47
2023-05-08T02:42:27.745Z,102066.94
2023-05-08T02:44:55.586Z,102060.56
2023-05-08T02:47:27.031Z,102049.78
2023-05-08T02:50:01.328Z,102056.69
2023-05-08T02:52:33.650Z,102056.84
2023-05-08T02:55:06.213Z,102053.53
2023-05-08T02:57:42.954Z,102041.41
2023-05-08T03:00:18.421Z,102050.78
2023-05-08T03:02:57.100Z,102039.69
2023-05-08T03:05:30.602Z,102042.31
2023-05-08T03:08:06.070Z,102035.25
2023-05-08T03:10:37.712Z,102050.38
2023-05-08T03:13:09.202Z,102036.13
2023-05-08T03:15:43.022Z,102036.13
2023-05-08T03:18:12.579Z,102038.25
2023-05-08T03:20:44.705Z,102040.16
2023-05-08T03:23:16.486Z,102029.03
2023-05-08T03:25:44.887Z,102025.88
2023-05-08T03:28:14.271Z,102033.78
2023-05-08T03:30:43.330Z,102032.19
2023-05-08T03:33:13.610Z,102034.94
2023-05-08T03:35:41.777Z,102029.59
2023-05-08T03:38:09.703Z,102039.81
2023-05-08T03:40:39.947Z,102033.91
2023-05-08T03:43:08.806Z,102032.72
2023-05-08T03:45:37.832Z,102019.03
2023-05-08T03:48:06.419Z,102031.56
2023-05-08T03:50:36.948Z,102039.56
2023-05-08T03:53:05.172Z,102040.47
2023-05-08T03:55:33.759Z,102041.59
2023-05-08T03:58:08.161Z,102040.31
2023-05-08T04:00:47.916Z,102044.59
2023-05-08T04:03:23.953Z,102046.75
2023-05-08T04:06:00.855Z,102051.34
2023-05-08T04:08:30.880Z,102033.44
2023-05-08T04:11:07.581Z,102028.63
2023-05-08T04:13:44.309Z,102023.84
2023-05-08T04:16:18.660Z,102034.09
2023-05-08T04:18:49.023Z,102040.75
2023-05-08T04:21:21.414Z,102044.06
2023-05-08T04:23:51.911Z,102024.75
2023-05-08T04:26:20.693Z,102048.13
2023-05-08T04:28:50.491Z,102043.13
2023-05-08T04:31:19.088Z,102048.72
2023-05-08T04:33:47.433Z,102048.28
2023-05-08T04:36:15.649Z,102043.53
2023-05-08T04:38:43.656Z,102047.28
2023-05-08T04:41:11.504Z,102055.94
2023-05-08T04:43:39.757Z,102061.56
2023-05-08T04:46:09.614Z,102060.81
2023-05-08T04:48:37.591Z,102059.97
2023-05-08T04:51:05.884Z,102064.84
2023-05-08T04:53:33.841Z,102059.38
2023-05-08T04:56:01.743Z,102073.75
2023-05-08T04:58:29.722Z,102069.16
2023-05-08T05:00:57.504Z,102074.63
2023-05-08T05:03:26.668Z,102080.47
2023-05-08T05:05:59.750Z,102075.91
2023-05-08T05:08:27.651Z,102075.03
2023-05-08T05:10:55.598Z,102084.25
2023-05-08T05:13:23.456Z,102086.97
2023-05-08T05:15:54.388Z,102083.66
2023-05-08T05:18:22.466Z,102086.88
2023-05-08T05:20:51.653Z,102081.22
2023-05-08T05:23:19.431Z,102084.00
2023-05-08T05:25:47.271Z,102092.50
2023-05-08T05:28:15.110Z,102085.31
2023-05-08T05:30:43.207Z,102094.56
2023-05-08T05:33:11.003Z,102092.69
2023-05-08T05:35:38.897Z,102106.22
2023-05-08T05:38:08.051Z,102102.72
2023-05-08T05:40:35.788Z,102101.22
2023-05-08T05:43:03.927Z,102104.25
2023-05-08T05:45:33.598Z,102106.69
2023-05-08T05:48:01.677Z,102112.16
2023-05-08T05:50:29.507Z,102112.09
2023-05-08T05:52:57.218Z,102121.50
2023-05-08T05:55:26.729Z,102125.22
2023-05-08T05:57:57.509Z,102126.50
2023-05-08T06:00:25.327Z,102114.78
2023-05-08T06:02:53.415Z,102129.75
2023-05-08T06:05:21.376Z,102138.69
2023-05-08T06:07:49.130Z,102132.41
2023-05-08T06:10:16.915Z,102149.13
2023-05-08T06:12:46.046Z,102141.16
2023-05-08T06:15:15.045Z,102146.41
2023-05-08T06:17:43.106Z,102149.13
2023-05-08T06:20:11.115Z,102149.47
2023-05-08T06:22:40.091Z,102151.47
2023-05-08T06:25:09.682Z,102151.50
2023-05-08T06:27:37.589Z,102129.94
2023-05-08T06:30:10.699Z,102148.59
2023-05-08T06:32:41.632Z,102151.06
2023-05-08T06:35:10.626Z,102140.75
2023-05-08T06:37:38.669Z,102137.81
2023-05-08T06:40:12.183Z,102138.41
2023-05-08T06:42:41.080Z,102139.00
2023-05-08T06:45:11.469Z,102133.88
2023-05-08T06:47:39.468Z,102138.91
2023-05-08T06:50:08.381Z,102126.25
2023-05-08T06:52:36.103Z,102126.97
2023-05-08T06:55:03.944Z,102127.34
2023-05-08T06:57:31.699Z,102122.47
2023-05-08T06:59:59.415Z,102134.47
2023-05-08T07:02:28.681Z,102130.34
2023-05-08T07:04:56.474Z,102127.81
2023-05-08T07:07:24.404Z,102127.13
2023-05-08T07:09:52.164Z,102107.09
2023-05-08T07:12:20.000Z,102127.31
2023-05-08T07:14:47.763Z,102126.38
2023-05-08T07:17:15.704Z,102120.06
2023-05-08T07:19:44.882Z,102129.59
2023-05-08T07:22:12.781Z,102126.13
2023-05-08T07:24:40.711Z,102126.84
2023-05-08T07:27:08.559Z,102116.19
2023-05-08T07:29:36.965Z,102118.84
2023-05-08T07:32:08.487Z,102123.34
2023-05-08T07:34:36.542Z,102125.56
2023-05-08T07:37:05.902Z,102120.13
2023-05-08T07:39:33.790Z,102117.97
2023-05-08T07:42:01.613Z,102124.03
2023-05-08T07:44:31.673Z,102122.91
2023-05-08T07:47:03.755Z,102120.59
2023-05-08T07:49:31.642Z,102116.28
2023-05-08T07:51:59.423Z,102121.44
2023-05-08T07:54:28.660Z,102121.59
2023-05-08T07:56:56.470Z,102120.84
2023-05-08T07:59:24.359Z,102125.16
2023-05-08T08:01:52.517Z,102117.09
2023-05-08T08:04:20.426Z,102124.84
2023-05-08T08:06:48.283Z,102125.97
2023-05-08T08:09:16.185Z,102127.66
2023-05-08T08:11:45.396Z,102126.31
2023-05-08T08:14:13.188Z,102114.59
2023-05-08T08:16:40.939Z,102128.59
2023-05-08T08:19:08.765Z,102124.22
2023-05-08T08:21:36.782Z,102127.16
2023-05-08T08:24:04.926Z,102120.94
2023-05-08T08:26:32.731Z,102124.91
2023-05-08T08:29:02.151Z,102126.25
2023-05-08T08:31:29.990Z,102126.75
2023-05-08T08:33:57.866Z,102120.00
2023-05-08T08:36:27.963Z,102118.88
2023-05-08T08:38:55.728Z,102121.66
2023-05-08T08:41:23.669Z,102125.34
2023-05-08T08:43:51.574Z,102113.03
2023-05-08T08:46:24.956Z,102119.75
2023-05-08T08:48:55.296Z,102116.53
2023-05-08T08:51:28.457Z,102116.25
2023-05-08T08:54:04.393Z,102122.31
2023-05-08T08:56:33.784Z,102119.81
2023-05-08T08:59:02.875Z,102110.53
2023-05-08T09:01:36.144Z,102113.44
2023-05-08T09:04:04.125Z,102107.28
2023-05-08T09:06:35.770Z,102114.25
2023-05-08T09:09:04.161Z,102113.47
2023-05-08T09:11:32.023Z,102108.06
2023-05-08T09:14:00.350Z,102119.47
2023-05-08T09:16:29.301Z,102114.38
2023-05-08T09:18:58.486Z,102113.69
2023-05-08T09:21:26.909Z,102113.22
2023-05-08T09:23:58.708Z,102112.06
2023-05-08T09:26:32.463Z,102114.13
2023-05-08T09:29:18.899Z,102120.34
2023-05-08T09:31:49.007Z,102112.63
2023-05-08T09:34:27.991Z,102113.13
2023-05-08T09:36:56.275Z,102115.97
2023-05-08T09:39:25.705Z,102120.47
2023-05-08T09:42:00.212Z,102116.16
2023-05-08T09:44:28.407Z,102116.16
2023-05-08T09:47:12.012Z,102101.19
2023-05-08T09:49:41.386Z,102114.97
2023-05-08T09:52:09.549Z,102117.34
2023-05-08T09:54:37.424Z,102120.09
2023-05-08T09:57:13.480Z,102124.94
2023-05-08T09:59:41.369Z,102121.84
2023-05-08T10:02:16.071Z,102120.78
2023-05-08T10:04:45.916Z,102113.31
2023-05-08T10:07:13.731Z,102117.25
2023-05-08T10:09:50.397Z,102110.38
2023-05-08T10:12:19.344Z,102118.28
2023-05-08T10:14:47.324Z,102113.25
2023-05-08T10:17:20.466Z,102112.22
2023-05-08T10:19:51.831Z,102110.69
2023-05-08T10:22:21.603Z,102119.66
2023-05-08T10:24:54.656Z,102118.78
2023-05-08T10:27:31.951Z,102124.13
2023-05-08T10:30:04.111Z,102113.56
2023-05-08T10:32:40.675Z,102113.56
2023-05-08T10:35:13.105Z,102115.50
2023-05-08T10:37:42.894Z,102116.84
2023-05-08T10:40:12.220Z,102109.78
2023-05-08T10:42:41.051Z,102115.38
2023-05-08T10:45:10.291Z,102118.47
2023-05-08T10:47:49.682Z,102109.84
2023-05-08T10:50:38.331Z,102104.94
2023-05-08T10:53:09.154Z,102105.69
2023-05-08T10:55:38.564Z,102113.38
2023-05-08T10:58:10.705Z,102109.06
2023-05-08T11:01:12.424Z,102105.03
2023-05-08T11:03:42.559Z,102111.56
2023-05-08T11:06:12.395Z,102108.84
2023-05-08T11:08:51.740Z,102118.47
2023-05-08T11:11:27.152Z,102110.41
2023-05-08T11:14:00.460Z,102107.13
2023-05-08T11:17:05.187Z,102112.25
2023-05-08T11:19:33.008Z,102095.78
2023-05-08T11:22:16.279Z,102094.75
2023-05-08T11:24:50.328Z,102094.47
2023-05-08T11:27:18.444Z,102092.16
2023-05-08T11:29:46.262Z,102076.41
2023-05-08T11:32:14.296Z,102078.41
2023-05-08T11:34:49.595Z,102079.28
2023-05-08T11:37:24.019Z,102086.34
2023-05-08T11:39:52.118Z,102083.59
2023-05-08T11:42:36.100Z,102078.41
2023-05-08T11:45:06.594Z,102073.16
2023-05-08T11:47:39.250Z,102075.84
2023-05-08T11:50:09.088Z,102077.28
2023-05-08T11:52:39.617Z,102075.25
2023-05-08T11:55:09.693Z,102076.63
2023-05-08T11:57:37.845Z,102069.81
2023-05-08T12:00:06.881Z,102063.91
2023-05-08T12:02:39.112Z,102065.72
2023-05-08T12:05:08.298Z,102061.28
2023-05-08T12:07:46.364Z,102064.22
2023-05-08T12:10:15.320Z,102059.41
2023-05-08T12:12:45.274Z,102054.47
2023-05-08T12:15:15.294Z,102051.09
2023-05-08T12:17:43.698Z,102061.41
2023-05-08T12:20:14.263Z,102053.44
2023-05-08T12:22:44.373Z,102052.31
2023-05-08T12:25:13.096Z,102051.94
2023-05-08T12:27:43.799Z,102054.41
2023-05-08T12:30:14.071Z,102047.25
2023-05-08T12:32:43.697Z,102040.13
2023-05-08T12:35:12.813Z,102048.75
2023-05-08T12:37:41.597Z,102039.00
2023-05-08T12:40:26.849Z,102054.06
2023-05-08T12:42:54.919Z,102041.78
2023-05-08T12:45:24.203Z,102041.22
2023-05-08T12:47:53.696Z,102040.53
2023-05-08T12:50:22.824Z,102040.13
2023-05-08T12:52:51.771Z,102034.59
2023-05-08T12:55:29.130Z,102030.72
2023-05-08T12:58:05.503Z,102031.38
2023-05-08T13:00:38.253Z,102029.13
2023-05-08T13:03:07.604Z,102035.03
2023-05-08T13:05:36.994Z,102035.50
2023-05-08T13:08:06.701Z,102033.88
2023-05-08T13:10:49.960Z,102034.28
2023-05-08T13:13:22.177Z,102026.13
2023-05-08T13:15:51.661Z,102029.44
2023-05-08T13:18:21.172Z,102018.47
2023-05-08T13:20:49.173Z,102019.72
2023-05-08T13:23:16.987Z,102008.72
2023-05-08T13:25:44.868Z,102013.81
2023-05-08T13:28:13.992Z,102020.19
2023-05-08T13:30:41.767Z,102017.13
2023-05-08T13:33:09.867Z,102022.47
2023-05-08T13:35:37.815Z,102012.44
2023-05-08T13:38:06.107Z,102015.31
2023-05-08T13:40:34.120Z,102016.47
2023-05-08T13:43:02.197Z,102017.97
2023-05-08T13:45:32.883Z,102006.97
2023-05-08T13:48:01.456Z,102011.69
2023-05-08T13:50:29.416Z,102012.63
2023-05-08T13:52:57.188Z,102017.75
2023-05-08T13:55:25.069Z,102012.72
2023-05-08T13:57:52.843Z,102020.84
2023-05-08T14:00:21.217Z,102015.97
2023-05-08T14:02:53.003Z,102013.66
2023-05-08T14:05:21.332Z,102006.63
2023-05-08T14:07:49.422Z,102007.47
2023-05-08T14:10:18.058Z,101994.84
2023-05-08T14:12:46.775Z,102004.97
2023-05-08T14:15:14.966Z,101998.75
2023-05-08T14:17:43.397Z,102001.78
2023-05-08T14:20:13.525Z,102002.06
2023-05-08T14:22:41.480Z,101997.22
2023-05-08T14:25:10.536Z,101996.09
2023-05-08T14:27:38.612Z,101997.75
2023-05-08T14:30:08.279Z,101991.63
2023-05-08T14:32:36.147Z,102002.56
2023-05-08T14:35:03.979Z,101997.47
2023-05-08T14:37:33.140Z,101999.28
2023-05-08T14:40:00.959Z,102000.94
2023-05-08T14:42:28.872Z,102002.91
2023-05-08T14:44:57.026Z,101995.53
2023-05-08T14:47:24.854Z,101990.72
2023-05-08T14:49:53.717Z,101994.75
2023-05-08T14:52:21.561Z,101991.31
2023-05-08T14:54:53.418Z,101981.59
2023-05-08T14:57:21.696Z,101978.72
2023-05-08T14:59:55.100Z,101987.56
2023-05-08T15:02:23.549Z,101983.75
2023-05-08T15:04:51.414Z,101979.25
2023-05-08T15:07:19.190Z,101984.66
2023-05-08T15:09:47.939Z,101991.50
2023-05-08T15:12:17.069Z,101991.03
2023-05-08T15:14:44.878Z,101989.09
2023-05-08T15:17:12.687Z,101991.19
2023-05-08T15:19:40.495Z,101991.69
2023-05-08T15:22:08.242Z,101984.56
2023-05-08T15:24:36.122Z,101991.16
2023-05-08T15:27:03.998Z,101994.38
2023-05-08T15:29:33.166Z,101989.03
2023-05-08T15:32:01.002Z,101998.09
2023-05-08T15:34:32.695Z,101992.94
2023-05-08T15:37:00.850Z,101995.13
2023-05-08T15:39:28.625Z,101996.38
2023-05-08T15:41:56.483Z,101996.34
2023-05-08T15:44:26.534Z,101996.72
2023-05-08T15:46:58.007Z,101993.28
2023-05-08T15:49:27.089Z,102001.09
2023-05-08T15:51:55.088Z,101993.06
2023-05-08T15:54:22.842Z,102000.63
2023-05-08T15:56:50.710Z,101997.31
2023-05-08T15:59:18.564Z,101994.16
2023-05-08T16:01:46.978Z,102006.41
2023-05-08T16:04:16.182Z,102004.25
2023-05-08T16:06:43.940Z,102004.25
2023-05-08T16:09:11.705Z,102003.97
2023-05-08T16:11:39.513Z,101996.53
2023-05-08T16:14:07.324Z,101997.41
2023-05-08T16:16:35.188Z,101994.25
2023-05-08T16:19:03.158Z,101999.16
2023-05-08T16:21:32.449Z,101995.56
2023-05-08T16:24:00.556Z,101992.88
2023-05-08T16:26:28.316Z,101984.78
2023-05-08T16:28:56.238Z,101982.91
2023-05-08T16:31:24.050Z,101972.91
2023-05-08T16:33:51.780Z,101973.72
2023-05-08T16:38:48.624Z,101977.22
2023-05-08T16:41:16.433Z,101980.13
2023-05-08T16:43:44.239Z,101977.91
2023-05-08T16:46:12.044Z,101970.91
2023-05-08T16:48:39.840Z,101976.88
2023-05-08T16:51:08.066Z,101975.50
2023-05-08T16:53:35.997Z,101975.59
2023-05-08T16:56:05.281Z,101968.81
2023-05-08T16:58:33.242Z,101964.53
2023-05-08T17:01:01.128Z,101961.06
2023-05-08T17:03:29.048Z,101958.28
2023-05-08T17:05:56.874Z,101964.72
2023-05-08T17:08:24.630Z,101966.75
2023-05-08T17:10:54.233Z,101962.59
2023-05-08T17:13:23.416Z,101965.16
2023-05-08T17:15:51.251Z,101963.97
2023-05-08T17:18:19.018Z,101959.19
2023-05-08T17:20:46.803Z,101962.19
2023-05-08T17:23:14.663Z,101960.47
2023-05-08T17:25:42.576Z,101956.00
2023-05-08T17:28:10.419Z,101945.50
2023-05-08T17:30:39.644Z,101954.44
2023-05-08T17:33:07.476Z,101944.81
2023-05-08T17:35:35.294Z,101951.84
2023-05-08T17:38:03.136Z,101949.66
2023-05-08T17:40:31.667Z,101953.84
2023-05-08T17:43:00.284Z,101948.19
2023-05-08T17:45:28.311Z,101933.22
2023-05-08T17:47:57.573Z,101936.16
2023-05-08T17:50:25.603Z,101939.25
2023-05-08T17:52:53.385Z,101938.44
2023-05-08T17:55:21.166Z,101933.66
2023-05-08T17:57:52.580Z,101926.28
2023-05-08T18:00:20.814Z,101931.59
2023-05-08T18:02:48.707Z,101934.88
2023-05-08T18:05:17.963Z,101923.00
2023-05-08T18:07:45.764Z,101925.38
2023-05-08T18:10:13.912Z,101923.66
2023-05-08T18:12:41.893Z,101923.16
2023-05-08T18:15:10.599Z,101924.56
2023-05-08T18:17:38.387Z,101921.31
2023-05-08T18:20:07.875Z,101927.84
2023-05-08T18:22:37.201Z,101926.50
2023-05-08T18:25:05.604Z,101916.56
2023-05-08T18:27:36.031Z,101908.84
2023-05-08T18:30:04.342Z,101914.03
2023-05-08T18:32:32.156Z,101897.88
2023-05-08T18:34:59.996Z,101909.41
2023-05-08T18:37:28.317Z,101904.41
2023-05-08T18:39:57.465Z,101907.13
2023-05-08T18:42:25.439Z,101911.78
2023-05-08T18:44:53.614Z,101923.63
2023-05-08T18:47:21.465Z,101927.28
2023-05-08T18:49:51.796Z,101933.63
2023-05-08T18:52:19.623Z,101935.69
2023-05-08T18:54:47.416Z,101944.13
2023-05-08T18:57:16.644Z,101944.13
2023-05-08T18:59:47.427Z,101936.25
2023-05-08T19:02:15.243Z,101931.75
2023-05-08T19:04:43.000Z,101944.16
2023-05-08T19:07:10.773Z,101937.28
2023-05-08T19:09:38.586Z,101935.72
2023-05-08T19:12:06.436Z,101937.97
2023-05-08T19:14:35.672Z,101937.97
2023-05-08T19:17:03.487Z,101949.34
2023-05-08T19:19:31.519Z,101945.72
2023-05-08T19:21:59.296Z,101943.47
2023-05-08T19:24:29.920Z,101949.66
2023-05-08T19:26:58.423Z,101942.09
2023-05-08T19:29:26.426Z,101938.97
2023-05-08T19:31:56.458Z,101944.47
2023-05-08T19:34:24.742Z,101946.03
2023-05-08T19:36:52.518Z,101957.56
2023-05-08T19:39:20.289Z,101950.84
2023-05-08T19:41:48.081Z,101967.56
2023-05-08T19:44:15.902Z,101973.91
2023-05-08T19:46:43.761Z,101961.09
2023-05-08T19:49:17.272Z,101976.44
2023-05-08T19:51:45.148Z,101980.22
2023-05-08T19:54:13.091Z,101987.63
2023-05-08T19:56:40.815Z,101972.81
2023-05-08T19:59:08.623Z,101980.56
2023-05-08T20:01:36.644Z,101976.94
2023-05-08T20:04:04.612Z,101971.28
2023-05-08T20:06:33.933Z,101967.50
2023-05-08T20:09:01.694Z,101970.25
2023-05-08T20:11:29.477Z,101967.66
2023-05-08T20:13:57.479Z,101958.56
2023-05-08T20:16:26.557Z,101953.56
2023-05-08T20:18:54.480Z,101954.41
2023-05-08T20:21:22.435Z,101959.25
2023-05-08T20:23:51.912Z,101954.94
2023-05-08T20:26:19.621Z,101951.31
2023-05-08T20:28:47.381Z,101951.47
2023-05-08T20:31:15.255Z,101958.00
2023-05-08T20:33:43.038Z,101948.38
2023-05-08T20:36:10.864Z,101951.28
2023-05-08T20:38:38.825Z,101948.53
2023-05-08T20:41:08.011Z,101946.81
2023-05-08T20:43:35.915Z,101950.88
2023-05-08T20:46:05.036Z,101948.50
2023-05-08T20:48:32.796Z,101948.81
2023-05-08T20:51:00.603Z,101946.56
2023-05-08T20:53:28.377Z,101943.94
2023-05-08T20:56:01.679Z,101939.66
2023-05-08T20:58:31.053Z,101938.09
2023-05-08T21:00:59.000Z,101930.19
2023-05-08T21:03:26.853Z,101930.84
2023-05-08T21:05:55.750Z,101930.63
2023-05-08T21:08:24.252Z,101933.72
2023-05-08T21:10:52.785Z,101928.91
2023-05-08T21:13:20.690Z,101918.03
2023-05-08T21:15:51.291Z,101918.41
2023-05-08T21:18:19.348Z,101923.00
2023-05-08T21:20:50.217Z,101926.91
2023-05-08T21:23:18.280Z,101917.97
2023-05-08T21:25:47.018Z,101906.47
2023-05-08T21:28:15.125Z,101908.19
2023-05-08T21:30:42.976Z,101907.16
2023-05-08T21:33:13.810Z,101901.81
2023-05-08T21:35:42.124Z,101899.06
2023-05-08T21:38:12.071Z,101887.53
2023-05-08T21:40:39.914Z,101876.56
2023-05-08T21:43:07.768Z,101867.47
2023-05-08T21:45:35.625Z,101865.19
2023-05-08T21:48:03.949Z,101868.13
2023-05-08T21:50:33.149Z,101867.09
2023-05-08T21:53:00.997Z,101867.25
2023-05-08T21:55:30.885Z,101867.41
2023-05-08T21:57:59.917Z,101858.47
2023-05-08T22:00:27.676Z,101850.22
2023-05-08T22:02:55.479Z,101852.13
2023-05-08T22:05:24.451Z,101856.06
2023-05-08T22:07:53.961Z,101833.38
2023-05-08T22:10:22.436Z,101844.31
2023-05-08T22:12:50.265Z,101830.88
2023-05-08T22:15:29.528Z,101837.91
2023-05-08T22:17:58.436Z,101833.16
2023-05-08T22:20:26.589Z,101845.16
2023-05-08T22:22:55.814Z,101838.13
2023-05-08T22:25:25.202Z,101835.53
2023-05-08T22:27:53.185Z,101825.75
2023-05-08T22:30:21.185Z,101824.03
2023-05-08T22:32:55.316Z,101815.97
2023-05-08T22:35:24.828Z,101814.72
2023-05-08T22:37:53.464Z,101801.97
2023-05-08T22:40:23.263Z,101795.94
2023-05-08T22:42:53.460Z,101794.88
2023-05-08T22:45:21.585Z,101794.16
2023-05-08T22:47:49.503Z,101791.75
2023-05-08T22:50:17.510Z,101775.53
2023-05-08T22:52:45.463Z,101780.88
2023-05-08T22:55:15.509Z,101781.34
2023-05-08T22:57:44.916Z,101775.50
2023-05-08T23:00:16.204Z,101774.78
2023-05-08T23:02:44.268Z,101761.72
2023-05-08T23:05:12.180Z,101763.91
2023-05-08T23:07:40.467Z,101757.03
2023-05-08T23:10:09.040Z,101760.78
2023-05-08T23:12:37.063Z,101764.22
2023-05-08T23:15:07.047Z,101772.31
2023-05-08T23:17:34.798Z,101769.56
2023-05-08T23:20:02.835Z,101760.78
2023-05-08T23:22:30.557Z,101758.72
2023-05-08T23:24:58.418Z,101751.84
2023-05-08T23:27:26.637Z,101752.69
2023-05-08T23:29:54.361Z,101743.63
2023-05-08T23:32:23.484Z,101739.16
2023-05-08T23:34:51.209Z,101743.09
2023-05-08T23:37:19.034Z,101744.25
2023-05-08T23:39:46.738Z,101743.41
2023-05-08T23:42:14.476Z,101742.38
2023-05-08T23:44:42.224Z,101734.31
2023-05-08T23:47:09.978Z,101745.28
2023-05-08T23:49:39.126Z,101743.72
2023-05-08T23:52:07.021Z,101737.53
2023-05-08T23:54:34.815Z,101735.13
2023-05-08T23:57:02.523Z,101738.69
2023-05-08T23:59:30.430Z,101736.97
